LTAU/ASR METAR and TAF weather

Enter ICAO airport designator
Station Type Date Time Source
LTAU METAR 2021/01/17 19:20 UTC NOAA

LTAU 171920Z 29002KT 9999 FEW010 BKN030 BKN080 M02/M03 Q1006 RESHSN NOSIG


Station Type Date Time Source
LTAU Decoded METAR 2021/01/17 19:20 UTC NOAA

Kayseri / Erkilet, Turkey (LTAU) 38-47N 035-29E 1054M
Jan 17, 2021 - 02:20 PM EST / 2021.01.17 1920 UTC
Wind: from the WNW (290 degrees) at 2 MPH (2 KT):0
Visibility: greater than 7 mile(s):0
Sky conditions: mostly cloudy
Temperature: 28 F (-2 C)
Dew Point: 26 F (-3 C)
Relative Humidity: 92%
Pressure (altimeter): 29.71 in. Hg (1006 hPa)
ob: LTAU 171920Z 29002KT 9999 FEW010 BKN030 BKN080 M02/M03 Q1006 RESHSN NOSIG
cycle: 19

Station Type Date Time Source
LTAU TAF 2021/01/17 18:03 UTC NOAA

TAF LTAU 171640Z 1718/1818 26008KT 8000 FEW012 BKN030
TEMPO 1718/1722 -SN
TEMPO 1801/1805 -SN
TEMPO 1805/1809 -SN
TEMPO 1811/1815 2000 SHSN

Example: see airport list